sensor_id;sensor_type;location;lat;lon;timestamp;temperature;humidity
17033;DHT22;63208;52.178;21.016;2023-05-20T00:00:24;14.30;99.90
17033;DHT22;63208;52.178;21.016;2023-05-20T00:02:51;14.30;99.90
17033;DHT22;63208;52.178;21.016;2023-05-20T00:05:17;14.30;99.90
17033;DHT22;63208;52.178;21.016;2023-05-20T00:07:45;14.30;99.90
17033;DHT22;63208;52.178;21.016;2023-05-20T00:10:12;14.30;99.90
17033;DHT22;63208;52.178;21.016;2023-05-20T00:12:39;14.30;99.90
17033;DHT22;63208;52.178;21.016;2023-05-20T00:15:06;14.30;99.90
17033;DHT22;63208;52.178;21.016;2023-05-20T00:17:33;14.20;99.90
17033;DHT22;63208;52.178;21.016;2023-05-20T00:20:00;14.20;99.90
17033;DHT22;63208;52.178;21.016;2023-05-20T00:22:26;14.20;99.90
17033;DHT22;63208;52.178;21.016;2023-05-20T00:24:54;14.20;99.90
17033;DHT22;63208;52.178;21.016;2023-05-20T00:27:21;14.20;99.90
17033;DHT22;63208;52.178;21.016;2023-05-20T00:29:48;14.20;99.90
17033;DHT22;63208;52.178;21.016;2023-05-20T00:32:15;14.20;99.90
17033;DHT22;63208;52.178;21.016;2023-05-20T00:34:42;14.20;99.90
17033;DHT22;63208;52.178;21.016;2023-05-20T00:37:08;14.10;99.90
17033;DHT22;63208;52.178;21.016;2023-05-20T00:39:35;14.10;99.90
17033;DHT22;63208;52.178;21.016;2023-05-20T00:42:03;14.10;99.90
17033;DHT22;63208;52.178;21.016;2023-05-20T00:44:30;14.10;99.90
17033;DHT22;63208;52.178;21.016;2023-05-20T00:46:57;14.10;99.90
17033;DHT22;63208;52.178;21.016;2023-05-20T00:49:24;14.00;99.90
17033;DHT22;63208;52.178;21.016;2023-05-20T00:51:51;14.00;99.90
17033;DHT22;63208;52.178;21.016;2023-05-20T00:54:17;14.00;99.90
17033;DHT22;63208;52.178;21.016;2023-05-20T00:56:44;14.00;99.90
17033;DHT22;63208;52.178;21.016;2023-05-20T00:59:13;14.00;99.90
17033;DHT22;63208;52.178;21.016;2023-05-20T01:01:39;14.00;99.90
17033;DHT22;63208;52.178;21.016;2023-05-20T01:04:06;13.90;99.90
17033;DHT22;63208;52.178;21.016;2023-05-20T01:06:33;13.90;99.90
17033;DHT22;63208;52.178;21.016;2023-05-20T01:09:02;13.90;99.90
17033;DHT22;63208;52.178;21.016;2023-05-20T01:11:30;13.90;99.90
17033;DHT22;63208;52.178;21.016;2023-05-20T01:14:00;13.90;99.90
17033;DHT22;63208;52.178;21.016;2023-05-20T01:16:29;13.90;99.90
17033;DHT22;63208;52.178;21.016;2023-05-20T01:18:58;13.90;99.90
17033;DHT22;63208;52.178;21.016;2023-05-20T01:21:26;13.90;99.90
17033;DHT22;63208;52.178;21.016;2023-05-20T01:23:57;13.80;99.90
17033;DHT22;63208;52.178;21.016;2023-05-20T01:26:25;13.80;99.90
17033;DHT22;63208;52.178;21.016;2023-05-20T01:28:52;13.80;99.90
17033;DHT22;63208;52.178;21.016;2023-05-20T01:31:22;13.80;99.90
17033;DHT22;63208;52.178;21.016;2023-05-20T01:33:51;13.70;99.90
17033;DHT22;63208;52.178;21.016;2023-05-20T01:36:19;13.80;99.90
17033;DHT22;63208;52.178;21.016;2023-05-20T01:38:46;13.70;99.90
17033;DHT22;63208;52.178;21.016;2023-05-20T01:41:15;13.70;99.90
17033;DHT22;63208;52.178;21.016;2023-05-20T01:43:42;13.70;99.90
17033;DHT22;63208;52.178;21.016;2023-05-20T01:46:09;13.70;99.90
17033;DHT22;63208;52.178;21.016;2023-05-20T01:48:35;13.70;99.90
17033;DHT22;63208;52.178;21.016;2023-05-20T01:51:02;13.70;99.90
17033;DHT22;63208;52.178;21.016;2023-05-20T01:53:29;13.70;99.90
17033;DHT22;63208;52.178;21.016;2023-05-20T01:55:56;13.70;99.90
17033;DHT22;63208;52.178;21.016;2023-05-20T01:58:24;13.70;99.90
17033;DHT22;63208;52.178;21.016;2023-05-20T02:00:51;13.70;99.90
17033;DHT22;63208;52.178;21.016;2023-05-20T02:03:17;13.80;99.90
17033;DHT22;63208;52.178;21.016;2023-05-20T02:05:44;13.70;99.90
17033;DHT22;63208;52.178;21.016;2023-05-20T02:08:11;13.70;99.90
17033;DHT22;63208;52.178;21.016;2023-05-20T02:10:37;13.60;99.90
17033;DHT22;63208;52.178;21.016;2023-05-20T02:13:04;13.70;99.90
17033;DHT22;63208;52.178;21.016;2023-05-20T02:15:32;13.70;99.90
17033;DHT22;63208;52.178;21.016;2023-05-20T02:17:59;13.70;99.90
17033;DHT22;63208;52.178;21.016;2023-05-20T02:20:26;13.70;99.90
17033;DHT22;63208;52.178;21.016;2023-05-20T02:22:53;13.60;99.90
17033;DHT22;63208;52.178;21.016;2023-05-20T02:25:20;13.60;99.90
17033;DHT22;63208;52.178;21.016;2023-05-20T02:27:47;13.60;99.90
17033;DHT22;63208;52.178;21.016;2023-05-20T02:30:13;13.60;99.90
17033;DHT22;63208;52.178;21.016;2023-05-20T02:32:41;13.70;99.90
17033;DHT22;63208;52.178;21.016;2023-05-20T02:35:08;13.70;99.90
17033;DHT22;63208;52.178;21.016;2023-05-20T02:37:35;13.70;99.90
17033;DHT22;63208;52.178;21.016;2023-05-20T02:40:03;13.70;99.90
17033;DHT22;63208;52.178;21.016;2023-05-20T02:42:31;13.70;99.90
17033;DHT22;63208;52.178;21.016;2023-05-20T02:44:57;13.70;99.90
17033;DHT22;63208;52.178;21.016;2023-05-20T02:47:24;13.70;99.90
17033;DHT22;63208;52.178;21.016;2023-05-20T02:49:52;13.60;99.90
17033;DHT22;63208;52.178;21.016;2023-05-20T02:52:19;13.70;99.90
17033;DHT22;63208;52.178;21.016;2023-05-20T02:54:46;13.70;99.90
17033;DHT22;63208;52.178;21.016;2023-05-20T02:57:13;13.70;99.90
17033;DHT22;63208;52.178;21.016;2023-05-20T02:59:40;13.70;99.90
17033;DHT22;63208;52.178;21.016;2023-05-20T03:02:07;13.60;99.90
17033;DHT22;63208;52.178;21.016;2023-05-20T03:04:33;13.70;99.90
17033;DHT22;63208;52.178;21.016;2023-05-20T03:07:05;13.60;99.90
17033;DHT22;63208;52.178;21.016;2023-05-20T03:09:33;13.70;99.90
17033;DHT22;63208;52.178;21.016;2023-05-20T03:11:59;13.70;99.90
17033;DHT22;63208;52.178;21.016;2023-05-20T03:14:26;13.70;99.90
17033;DHT22;63208;52.178;21.016;2023-05-20T03:16:53;13.70;99.90
17033;DHT22;63208;52.178;21.016;2023-05-20T03:19:20;13.70;99.90
17033;DHT22;63208;52.178;21.016;2023-05-20T03:21:47;13.70;99.90
17033;DHT22;63208;52.178;21.016;2023-05-20T03:24:16;13.70;99.90
17033;DHT22;63208;52.178;21.016;2023-05-20T03:26:43;13.70;99.90
17033;DHT22;63208;52.178;21.016;2023-05-20T03:29:10;13.70;99.90
17033;DHT22;63208;52.178;21.016;2023-05-20T03:31:37;13.70;99.90
17033;DHT22;63208;52.178;21.016;2023-05-20T03:34:04;13.80;99.90
17033;DHT22;63208;52.178;21.016;2023-05-20T03:36:30;13.80;99.90
17033;DHT22;63208;52.178;21.016;2023-05-20T03:38:57;13.70;99.90
17033;DHT22;63208;52.178;21.016;2023-05-20T03:41:25;13.80;99.90
17033;DHT22;63208;52.178;21.016;2023-05-20T03:43:52;13.80;99.90
17033;DHT22;63208;52.178;21.016;2023-05-20T03:46:18;13.70;99.90
17033;DHT22;63208;52.178;21.016;2023-05-20T03:48:45;13.70;99.90
17033;DHT22;63208;52.178;21.016;2023-05-20T03:51:12;13.80;99.90
17033;DHT22;63208;52.178;21.016;2023-05-20T03:53:39;13.80;99.90
17033;DHT22;63208;52.178;21.016;2023-05-20T03:56:05;13.80;99.90
17033;DHT22;63208;52.178;21.016;2023-05-20T03:58:33;13.80;99.90
17033;DHT22;63208;52.178;21.016;2023-05-20T04:01:02;13.80;99.90
17033;DHT22;63208;52.178;21.016;2023-05-20T04:03:29;13.80;99.90
17033;DHT22;63208;52.178;21.016;2023-05-20T04:05:56;13.90;99.90
17033;DHT22;63208;52.178;21.016;2023-05-20T04:08:22;13.90;99.90
17033;DHT22;63208;52.178;21.016;2023-05-20T04:10:50;13.90;99.90
17033;DHT22;63208;52.178;21.016;2023-05-20T04:13:20;13.90;99.90
17033;DHT22;63208;52.178;21.016;2023-05-20T04:15:50;14.00;99.90
17033;DHT22;63208;52.178;21.016;2023-05-20T04:18:17;14.00;99.90
17033;DHT22;63208;52.178;21.016;2023-05-20T04:20:44;14.10;99.90
17033;DHT22;63208;52.178;21.016;2023-05-20T04:23:11;14.10;99.90
17033;DHT22;63208;52.178;21.016;2023-05-20T04:25:38;14.10;99.90
17033;DHT22;63208;52.178;21.016;2023-05-20T04:28:05;14.20;99.90
17033;DHT22;63208;52.178;21.016;2023-05-20T04:30:33;14.20;99.90
17033;DHT22;63208;52.178;21.016;2023-05-20T04:33:01;14.20;99.90
17033;DHT22;63208;52.178;21.016;2023-05-20T04:35:28;14.30;99.90
17033;DHT22;63208;52.178;21.016;2023-05-20T04:37:55;14.30;99.90
17033;DHT22;63208;52.178;21.016;2023-05-20T04:40:21;14.30;99.90
17033;DHT22;63208;52.178;21.016;2023-05-20T04:42:48;14.30;99.90
17033;DHT22;63208;52.178;21.016;2023-05-20T04:45:15;14.30;99.90
17033;DHT22;63208;52.178;21.016;2023-05-20T04:47:42;14.40;99.90
17033;DHT22;63208;52.178;21.016;2023-05-20T04:50:11;14.40;99.90
17033;DHT22;63208;52.178;21.016;2023-05-20T04:52:39;14.50;99.90
17033;DHT22;63208;52.178;21.016;2023-05-20T04:55:06;14.50;99.90
17033;DHT22;63208;52.178;21.016;2023-05-20T04:57:34;14.50;99.90
17033;DHT22;63208;52.178;21.016;2023-05-20T05:00:03;14.50;99.90
17033;DHT22;63208;52.178;21.016;2023-05-20T05:02:31;14.60;99.90
17033;DHT22;63208;52.178;21.016;2023-05-20T05:04:58;14.60;99.90
17033;DHT22;63208;52.178;21.016;2023-05-20T05:07:26;14.60;99.90
17033;DHT22;63208;52.178;21.016;2023-05-20T05:09:53;14.70;99.90
17033;DHT22;63208;52.178;21.016;2023-05-20T05:12:20;14.70;99.90
17033;DHT22;63208;52.178;21.016;2023-05-20T05:14:46;14.80;99.90
17033;DHT22;63208;52.178;21.016;2023-05-20T05:17:13;14.80;99.90
17033;DHT22;63208;52.178;21.016;2023-05-20T05:19:40;14.90;99.90
17033;DHT22;63208;52.178;21.016;2023-05-20T05:22:06;15.00;99.90
17033;DHT22;63208;52.178;21.016;2023-05-20T05:24:34;15.10;99.90
17033;DHT22;63208;52.178;21.016;2023-05-20T05:27:01;15.20;99.90
17033;DHT22;63208;52.178;21.016;2023-05-20T05:29:28;15.30;99.90
17033;DHT22;63208;52.178;21.016;2023-05-20T05:31:55;15.30;99.90
17033;DHT22;63208;52.178;21.016;2023-05-20T05:34:22;15.40;99.90
17033;DHT22;63208;52.178;21.016;2023-05-20T05:36:48;15.40;99.90
17033;DHT22;63208;52.178;21.016;2023-05-20T05:39:15;15.50;99.90
17033;DHT22;63208;52.178;21.016;2023-05-20T05:41:43;15.50;99.90
17033;DHT22;63208;52.178;21.016;2023-05-20T05:44:10;15.60;99.90
17033;DHT22;63208;52.178;21.016;2023-05-20T05:46:37;15.60;99.90
17033;DHT22;63208;52.178;21.016;2023-05-20T05:49:03;15.70;99.90
17033;DHT22;63208;52.178;21.016;2023-05-20T05:51:30;15.70;99.90
17033;DHT22;63208;52.178;21.016;2023-05-20T05:53:57;15.80;99.90
17033;DHT22;63208;52.178;21.016;2023-05-20T05:56:23;15.90;99.90
17033;DHT22;63208;52.178;21.016;2023-05-20T05:58:51;15.90;99.90
17033;DHT22;63208;52.178;21.016;2023-05-20T06:01:18;16.00;99.90
17033;DHT22;63208;52.178;21.016;2023-05-20T06:03:46;16.00;99.90
17033;DHT22;63208;52.178;21.016;2023-05-20T06:06:12;16.10;99.90
17033;DHT22;63208;52.178;21.016;2023-05-20T06:08:39;16.20;99.90
17033;DHT22;63208;52.178;21.016;2023-05-20T06:11:06;16.20;99.90
17033;DHT22;63208;52.178;21.016;2023-05-20T06:13:32;16.20;99.90
17033;DHT22;63208;52.178;21.016;2023-05-20T06:16:01;16.30;99.90
17033;DHT22;63208;52.178;21.016;2023-05-20T06:18:27;16.40;99.90
17033;DHT22;63208;52.178;21.016;2023-05-20T06:20:55;16.40;99.90
17033;DHT22;63208;52.178;21.016;2023-05-20T06:23:21;16.40;99.90
17033;DHT22;63208;52.178;21.016;2023-05-20T06:25:48;16.50;99.90
17033;DHT22;63208;52.178;21.016;2023-05-20T06:28:15;16.60;99.90
17033;DHT22;63208;52.178;21.016;2023-05-20T06:30:42;16.70;99.90
17033;DHT22;63208;52.178;21.016;2023-05-20T06:33:10;16.80;99.90
17033;DHT22;63208;52.178;21.016;2023-05-20T06:35:37;16.80;99.90
17033;DHT22;63208;52.178;21.016;2023-05-20T06:38:03;16.90;99.90
17033;DHT22;63208;52.178;21.016;2023-05-20T06:40:30;16.90;99.90
17033;DHT22;63208;52.178;21.016;2023-05-20T06:42:57;17.00;99.90
17033;DHT22;63208;52.178;21.016;2023-05-20T06:45:23;17.10;99.90
17033;DHT22;63208;52.178;21.016;2023-05-20T06:47:50;17.10;99.90
17033;DHT22;63208;52.178;21.016;2023-05-20T06:50:20;17.20;99.90
17033;DHT22;63208;52.178;21.016;2023-05-20T06:52:46;17.20;99.90
17033;DHT22;63208;52.178;21.016;2023-05-20T06:55:13;17.20;99.90
17033;DHT22;63208;52.178;21.016;2023-05-20T06:57:40;17.20;99.90
17033;DHT22;63208;52.178;21.016;2023-05-20T07:00:07;17.10;99.90
17033;DHT22;63208;52.178;21.016;2023-05-20T07:02:34;17.10;99.90
17033;DHT22;63208;52.178;21.016;2023-05-20T07:05:01;17.10;99.90
17033;DHT22;63208;52.178;21.016;2023-05-20T07:07:29;17.10;99.90
17033;DHT22;63208;52.178;21.016;2023-05-20T07:09:56;17.10;99.90
17033;DHT22;63208;52.178;21.016;2023-05-20T07:12:22;17.20;99.90
17033;DHT22;63208;52.178;21.016;2023-05-20T07:14:49;17.10;99.90
17033;DHT22;63208;52.178;21.016;2023-05-20T07:17:16;17.20;99.90
17033;DHT22;63208;52.178;21.016;2023-05-20T07:19:42;17.20;99.90
17033;DHT22;63208;52.178;21.016;2023-05-20T07:22:09;17.20;99.90
17033;DHT22;63208;52.178;21.016;2023-05-20T07:24:37;17.30;99.90
17033;DHT22;63208;52.178;21.016;2023-05-20T07:27:04;17.30;99.90
17033;DHT22;63208;52.178;21.016;2023-05-20T07:29:31;17.30;99.90
17033;DHT22;63208;52.178;21.016;2023-05-20T07:31:58;17.40;99.90
17033;DHT22;63208;52.178;21.016;2023-05-20T07:34:24;17.40;99.90
17033;DHT22;63208;52.178;21.016;2023-05-20T07:36:51;17.40;99.90
17033;DHT22;63208;52.178;21.016;2023-05-20T07:39:18;17.40;99.90
17033;DHT22;63208;52.178;21.016;2023-05-20T07:41:46;17.60;99.90
17033;DHT22;63208;52.178;21.016;2023-05-20T07:44:13;17.60;99.90
17033;DHT22;63208;52.178;21.016;2023-05-20T07:46:39;17.70;99.90
17033;DHT22;63208;52.178;21.016;2023-05-20T07:49:07;17.70;99.90
17033;DHT22;63208;52.178;21.016;2023-05-20T07:51:33;18.00;99.90
17033;DHT22;63208;52.178;21.016;2023-05-20T07:54:00;18.10;99.90
17033;DHT22;63208;52.178;21.016;2023-05-20T07:56:27;18.00;99.90
17033;DHT22;63208;52.178;21.016;2023-05-20T07:58:56;18.10;99.90
17033;DHT22;63208;52.178;21.016;2023-05-20T08:01:23;18.20;99.90
17033;DHT22;63208;52.178;21.016;2023-05-20T08:03:50;18.20;99.90
17033;DHT22;63208;52.178;21.016;2023-05-20T08:06:17;18.20;99.90
17033;DHT22;63208;52.178;21.016;2023-05-20T08:08:44;18.30;99.90
17033;DHT22;63208;52.178;21.016;2023-05-20T08:11:12;18.30;99.90
17033;DHT22;63208;52.178;21.016;2023-05-20T08:13:38;18.30;99.90
17033;DHT22;63208;52.178;21.016;2023-05-20T08:16:06;18.30;99.90
17033;DHT22;63208;52.178;21.016;2023-05-20T08:18:33;18.30;99.90
17033;DHT22;63208;52.178;21.016;2023-05-20T08:21:00;18.40;99.90
17033;DHT22;63208;52.178;21.016;2023-05-20T08:23:27;18.40;99.90
17033;DHT22;63208;52.178;21.016;2023-05-20T08:25:54;18.40;99.90
17033;DHT22;63208;52.178;21.016;2023-05-20T08:28:21;18.50;99.90
17033;DHT22;63208;52.178;21.016;2023-05-20T08:30:48;18.60;99.90
17033;DHT22;63208;52.178;21.016;2023-05-20T08:33:17;18.70;99.90
17033;DHT22;63208;52.178;21.016;2023-05-20T08:35:46;18.70;99.90
17033;DHT22;63208;52.178;21.016;2023-05-20T08:38:12;18.90;99.90
17033;DHT22;63208;52.178;21.016;2023-05-20T08:40:39;18.90;99.90
17033;DHT22;63208;52.178;21.016;2023-05-20T08:43:06;19.00;99.90
17033;DHT22;63208;52.178;21.016;2023-05-20T08:45:34;19.00;99.90
17033;DHT22;63208;52.178;21.016;2023-05-20T08:48:02;19.10;99.90
17033;DHT22;63208;52.178;21.016;2023-05-20T08:50:31;19.20;99.90
17033;DHT22;63208;52.178;21.016;2023-05-20T08:52:58;19.40;99.90
17033;DHT22;63208;52.178;21.016;2023-05-20T08:55:26;19.50;99.90
17033;DHT22;63208;52.178;21.016;2023-05-20T08:57:55;19.60;99.90
17033;DHT22;63208;52.178;21.016;2023-05-20T09:00:22;19.70;99.90
17033;DHT22;63208;52.178;21.016;2023-05-20T09:02:53;19.80;99.90
17033;DHT22;63208;52.178;21.016;2023-05-20T09:05:20;20.00;99.90
17033;DHT22;63208;52.178;21.016;2023-05-20T09:07:49;20.00;99.90
17033;DHT22;63208;52.178;21.016;2023-05-20T09:10:15;20.00;99.90
17033;DHT22;63208;52.178;21.016;2023-05-20T09:12:42;20.00;99.90
17033;DHT22;63208;52.178;21.016;2023-05-20T09:15:09;20.10;99.90
17033;DHT22;63208;52.178;21.016;2023-05-20T09:17:36;20.10;99.90
17033;DHT22;63208;52.178;21.016;2023-05-20T09:20:05;20.30;99.90
17033;DHT22;63208;52.178;21.016;2023-05-20T09:22:33;20.30;99.90
17033;DHT22;63208;52.178;21.016;2023-05-20T09:25:01;20.30;99.90
17033;DHT22;63208;52.178;21.016;2023-05-20T09:27:28;20.50;99.90
17033;DHT22;63208;52.178;21.016;2023-05-20T09:29:54;20.50;99.90
17033;DHT22;63208;52.178;21.016;2023-05-20T09:32:21;20.60;99.90
17033;DHT22;63208;52.178;21.016;2023-05-20T09:34:52;20.60;99.90
17033;DHT22;63208;52.178;21.016;2023-05-20T09:37:20;20.70;99.90
17033;DHT22;63208;52.178;21.016;2023-05-20T09:39:54;20.90;99.90
17033;DHT22;63208;52.178;21.016;2023-05-20T09:42:24;20.90;99.90
17033;DHT22;63208;52.178;21.016;2023-05-20T09:44:52;20.90;99.90
17033;DHT22;63208;52.178;21.016;2023-05-20T09:47:19;21.10;99.90
17033;DHT22;63208;52.178;21.016;2023-05-20T09:49:46;21.20;99.90
17033;DHT22;63208;52.178;21.016;2023-05-20T09:52:14;21.30;99.90
17033;DHT22;63208;52.178;21.016;2023-05-20T09:54:41;21.50;99.90
17033;DHT22;63208;52.178;21.016;2023-05-20T09:57:08;21.40;99.90
17033;DHT22;63208;52.178;21.016;2023-05-20T09:59:37;21.50;99.90
17033;DHT22;63208;52.178;21.016;2023-05-20T10:02:04;21.50;99.90
17033;DHT22;63208;52.178;21.016;2023-05-20T10:04:31;21.60;99.90
17033;DHT22;63208;52.178;21.016;2023-05-20T10:07:04;21.60;99.90
17033;DHT22;63208;52.178;21.016;2023-05-20T10:12:22;21.80;99.90
17033;DHT22;63208;52.178;21.016;2023-05-20T10:14:57;21.80;99.90
17033;DHT22;63208;52.178;21.016;2023-05-20T10:17:27;21.80;99.90
17033;DHT22;63208;52.178;21.016;2023-05-20T10:19:57;21.80;99.90
17033;DHT22;63208;52.178;21.016;2023-05-20T10:22:25;22.00;99.90
17033;DHT22;63208;52.178;21.016;2023-05-20T10:24:56;22.10;99.90
17033;DHT22;63208;52.178;21.016;2023-05-20T10:27:23;22.20;99.90
17033;DHT22;63208;52.178;21.016;2023-05-20T10:29:50;22.30;99.90
17033;DHT22;63208;52.178;21.016;2023-05-20T10:32:25;22.40;99.90
17033;DHT22;63208;52.178;21.016;2023-05-20T10:34:52;22.50;99.90
17033;DHT22;63208;52.178;21.016;2023-05-20T10:37:22;22.50;99.90
17033;DHT22;63208;52.178;21.016;2023-05-20T10:39:49;22.40;99.90
17033;DHT22;63208;52.178;21.016;2023-05-20T10:42:15;22.50;99.90
17033;DHT22;63208;52.178;21.016;2023-05-20T10:44:52;22.50;99.90
17033;DHT22;63208;52.178;21.016;2023-05-20T10:47:19;22.70;99.90
17033;DHT22;63208;52.178;21.016;2023-05-20T10:49:47;22.60;99.90
17033;DHT22;63208;52.178;21.016;2023-05-20T10:52:15;22.50;99.90
17033;DHT22;63208;52.178;21.016;2023-05-20T10:54:42;22.30;99.90
17033;DHT22;63208;52.178;21.016;2023-05-20T10:57:10;22.20;99.90
17033;DHT22;63208;52.178;21.016;2023-05-20T10:59:36;22.30;99.90
17033;DHT22;63208;52.178;21.016;2023-05-20T11:02:03;22.40;99.90
17033;DHT22;63208;52.178;21.016;2023-05-20T11:04:30;22.50;99.90
17033;DHT22;63208;52.178;21.016;2023-05-20T11:06:59;22.70;99.90
17033;DHT22;63208;52.178;21.016;2023-05-20T11:09:26;22.80;99.90
17033;DHT22;63208;52.178;21.016;2023-05-20T11:11:52;23.00;99.90
17033;DHT22;63208;52.178;21.016;2023-05-20T11:14:20;23.10;99.90
17033;DHT22;63208;52.178;21.016;2023-05-20T11:16:49;23.20;99.90
17033;DHT22;63208;52.178;21.016;2023-05-20T11:19:16;23.30;99.90
17033;DHT22;63208;52.178;21.016;2023-05-20T11:21:44;23.40;99.90
17033;DHT22;63208;52.178;21.016;2023-05-20T11:24:12;23.20;99.90
17033;DHT22;63208;52.178;21.016;2023-05-20T11:26:39;23.10;99.90
17033;DHT22;63208;52.178;21.016;2023-05-20T11:29:06;23.30;99.90
17033;DHT22;63208;52.178;21.016;2023-05-20T11:31:33;23.40;99.90
17033;DHT22;63208;52.178;21.016;2023-05-20T11:34:00;23.20;99.90
17033;DHT22;63208;52.178;21.016;2023-05-20T11:36:28;23.10;99.90
17033;DHT22;63208;52.178;21.016;2023-05-20T11:38:56;23.10;99.90
17033;DHT22;63208;52.178;21.016;2023-05-20T11:41:25;23.10;99.90
17033;DHT22;63208;52.178;21.016;2023-05-20T11:43:55;23.20;99.90
17033;DHT22;63208;52.178;21.016;2023-05-20T11:46:24;23.50;99.90
17033;DHT22;63208;52.178;21.016;2023-05-20T11:48:52;23.80;99.90
17033;DHT22;63208;52.178;21.016;2023-05-20T11:51:21;24.00;99.90
17033;DHT22;63208;52.178;21.016;2023-05-20T11:53:48;24.10;99.90
17033;DHT22;63208;52.178;21.016;2023-05-20T11:56:15;24.30;99.90
17033;DHT22;63208;52.178;21.016;2023-05-20T11:58:43;24.50;99.90
17033;DHT22;63208;52.178;21.016;2023-05-20T12:01:10;24.60;99.90
17033;DHT22;63208;52.178;21.016;2023-05-20T12:03:37;24.60;99.90
17033;DHT22;63208;52.178;21.016;2023-05-20T12:06:03;24.80;99.90
17033;DHT22;63208;52.178;21.016;2023-05-20T12:08:30;25.00;99.90
17033;DHT22;63208;52.178;21.016;2023-05-20T12:10:57;24.80;99.90
17033;DHT22;63208;52.178;21.016;2023-05-20T12:13:23;24.50;99.90
17033;DHT22;63208;52.178;21.016;2023-05-20T12:15:52;24.20;99.90
17033;DHT22;63208;52.178;21.016;2023-05-20T12:18:18;24.40;99.90
17033;DHT22;63208;52.178;21.016;2023-05-20T12:20:45;24.50;99.90
17033;DHT22;63208;52.178;21.016;2023-05-20T12:23:12;24.60;99.90
17033;DHT22;63208;52.178;21.016;2023-05-20T12:25:38;24.80;99.90
17033;DHT22;63208;52.178;21.016;2023-05-20T12:28:05;25.00;99.90
17033;DHT22;63208;52.178;21.016;2023-05-20T12:30:32;25.20;99.90
17033;DHT22;63208;52.178;21.016;2023-05-20T12:33:00;25.40;99.90
17033;DHT22;63208;52.178;21.016;2023-05-20T12:35:35;25.50;99.90
17033;DHT22;63208;52.178;21.016;2023-05-20T12:38:02;25.60;99.90
17033;DHT22;63208;52.178;21.016;2023-05-20T12:40:28;25.60;99.90
17033;DHT22;63208;52.178;21.016;2023-05-20T12:42:55;25.70;99.90
17033;DHT22;63208;52.178;21.016;2023-05-20T12:45:22;25.60;99.90
17033;DHT22;63208;52.178;21.016;2023-05-20T12:47:49;25.70;99.90
17033;DHT22;63208;52.178;21.016;2023-05-20T12:50:17;25.80;99.90
17033;DHT22;63208;52.178;21.016;2023-05-20T12:52:44;25.90;99.90
17033;DHT22;63208;52.178;21.016;2023-05-20T12:55:11;26.00;99.90
17033;DHT22;63208;52.178;21.016;2023-05-20T12:57:38;26.30;99.90
17033;DHT22;63208;52.178;21.016;2023-05-20T13:00:06;26.50;99.90
17033;DHT22;63208;52.178;21.016;2023-05-20T13:02:33;26.70;99.90
17033;DHT22;63208;52.178;21.016;2023-05-20T13:04:59;26.90;99.90
17033;DHT22;63208;52.178;21.016;2023-05-20T13:07:27;27.30;99.90
17033;DHT22;63208;52.178;21.016;2023-05-20T13:09:56;27.50;99.90
17033;DHT22;63208;52.178;21.016;2023-05-20T13:12:23;27.80;99.90
17033;DHT22;63208;52.178;21.016;2023-05-20T13:14:49;28.10;99.90
17033;DHT22;63208;52.178;21.016;2023-05-20T13:17:16;28.50;99.90
17033;DHT22;63208;52.178;21.016;2023-05-20T13:19:43;28.30;99.90
17033;DHT22;63208;52.178;21.016;2023-05-20T13:22:10;27.30;99.90
17033;DHT22;63208;52.178;21.016;2023-05-20T13:24:38;26.50;99.90
17033;DHT22;63208;52.178;21.016;2023-05-20T13:27:05;25.80;99.90
17033;DHT22;63208;52.178;21.016;2023-05-20T13:29:32;25.30;99.90
17033;DHT22;63208;52.178;21.016;2023-05-20T13:31:59;25.10;99.90
17033;DHT22;63208;52.178;21.016;2023-05-20T13:34:26;24.70;99.90
17033;DHT22;63208;52.178;21.016;2023-05-20T13:36:52;24.50;99.90
17033;DHT22;63208;52.178;21.016;2023-05-20T13:39:19;24.30;99.90
17033;DHT22;63208;52.178;21.016;2023-05-20T13:41:47;24.20;99.90
17033;DHT22;63208;52.178;21.016;2023-05-20T13:44:14;24.10;99.90
17033;DHT22;63208;52.178;21.016;2023-05-20T13:46:40;24.10;99.90
17033;DHT22;63208;52.178;21.016;2023-05-20T13:49:07;24.20;99.90
17033;DHT22;63208;52.178;21.016;2023-05-20T13:51:34;25.40;99.90
17033;DHT22;63208;52.178;21.016;2023-05-20T13:54:00;26.80;99.90
17033;DHT22;63208;52.178;21.016;2023-05-20T13:56:27;28.10;99.90
17033;DHT22;63208;52.178;21.016;2023-05-20T13:58:55;29.20;99.90
17033;DHT22;63208;52.178;21.016;2023-05-20T14:01:22;30.60;99.90
17033;DHT22;63208;52.178;21.016;2023-05-20T14:03:49;31.50;99.90
17033;DHT22;63208;52.178;21.016;2023-05-20T14:06:15;31.80;96.40
17033;DHT22;63208;52.178;21.016;2023-05-20T14:08:43;32.40;94.30
17033;DHT22;63208;52.178;21.016;2023-05-20T14:11:10;32.60;92.20
17033;DHT22;63208;52.178;21.016;2023-05-20T14:13:36;32.70;91.20
17033;DHT22;63208;52.178;21.016;2023-05-20T14:16:05;33.20;89.70
17033;DHT22;63208;52.178;21.016;2023-05-20T14:18:31;33.40;86.00
17033;DHT22;63208;52.178;21.016;2023-05-20T14:20:58;33.50;83.30
17033;DHT22;63208;52.178;21.016;2023-05-20T14:23:25;33.70;82.30
17033;DHT22;63208;52.178;21.016;2023-05-20T14:25:52;33.70;81.40
17033;DHT22;63208;52.178;21.016;2023-05-20T14:28:18;33.60;78.50
17033;DHT22;63208;52.178;21.016;2023-05-20T14:30:45;32.90;78.30
17033;DHT22;63208;52.178;21.016;2023-05-20T14:33:13;32.60;79.50
17033;DHT22;63208;52.178;21.016;2023-05-20T14:35:40;32.40;79.00
17033;DHT22;63208;52.178;21.016;2023-05-20T14:38:07;32.20;79.30
17033;DHT22;63208;52.178;21.016;2023-05-20T14:40:33;32.70;78.60
17033;DHT22;63208;52.178;21.016;2023-05-20T14:43:00;32.70;77.20
17033;DHT22;63208;52.178;21.016;2023-05-20T14:45:27;32.60;77.20
17033;DHT22;63208;52.178;21.016;2023-05-20T14:47:53;32.50;77.80
17033;DHT22;63208;52.178;21.016;2023-05-20T14:50:21;32.60;76.90
17033;DHT22;63208;52.178;21.016;2023-05-20T14:52:48;32.10;76.80
17033;DHT22;63208;52.178;21.016;2023-05-20T14:55:15;31.90;76.90
17033;DHT22;63208;52.178;21.016;2023-05-20T14:57:42;31.80;77.60
17033;DHT22;63208;52.178;21.016;2023-05-20T15:00:09;31.50;78.40
17033;DHT22;63208;52.178;21.016;2023-05-20T15:02:36;31.10;78.80
17033;DHT22;63208;52.178;21.016;2023-05-20T15:05:02;30.50;78.80
17033;DHT22;63208;52.178;21.016;2023-05-20T15:07:31;30.00;80.00
17033;DHT22;63208;52.178;21.016;2023-05-20T15:09:57;29.90;80.70
17033;DHT22;63208;52.178;21.016;2023-05-20T15:12:24;30.00;80.70
17033;DHT22;63208;52.178;21.016;2023-05-20T15:14:51;30.10;79.80
17033;DHT22;63208;52.178;21.016;2023-05-20T15:17:17;29.50;81.60